sensor_id;sensor_type;location;lat;lon;timestamp;pressure;altitude;pressure_sealevel;temperature;humidity
34328;BME280;20588;48.840;10.064;2023-08-06T00:01:40;95782.59;;;15.13;100.00
34328;BME280;20588;48.840;10.064;2023-08-06T00:04:06;95782.31;;;15.15;100.00
34328;BME280;20588;48.840;10.064;2023-08-06T00:06:32;95785.22;;;15.23;100.00
34328;BME280;20588;48.840;10.064;2023-08-06T00:08:58;95772.53;;;15.37;100.00
34328;BME280;20588;48.840;10.064;2023-08-06T00:11:24;95780.81;;;15.29;100.00
34328;BME280;20588;48.840;10.064;2023-08-06T00:13:50;95775.44;;;15.40;100.00
34328;BME280;20588;48.840;10.064;2023-08-06T00:16:16;95776.91;;;15.21;100.00
34328;BME280;20588;48.840;10.064;2023-08-06T00:18:42;95775.34;;;15.15;100.00
34328;BME280;20588;48.840;10.064;2023-08-06T00:21:08;95767.28;;;15.12;100.00
34328;BME280;20588;48.840;10.064;2023-08-06T00:23:35;95766.53;;;15.11;100.00
34328;BME280;20588;48.840;10.064;2023-08-06T00:26:01;95755.13;;;15.17;100.00
34328;BME280;20588;48.840;10.064;2023-08-06T00:28:27;95758.75;;;15.11;100.00
34328;BME280;20588;48.840;10.064;2023-08-06T00:30:56;95757.19;;;15.10;100.00
34328;BME280;20588;48.840;10.064;2023-08-06T00:33:23;95758.47;;;15.03;100.00
34328;BME280;20588;48.840;10.064;2023-08-06T00:35:49;95760.81;;;14.99;100.00
34328;BME280;20588;48.840;10.064;2023-08-06T00:38:15;95749.38;;;14.95;100.00
34328;BME280;20588;48.840;10.064;2023-08-06T00:40:41;95743.69;;;14.93;100.00
34328;BME280;20588;48.840;10.064;2023-08-06T00:43:07;95743.94;;;14.92;100.00
34328;BME280;20588;48.840;10.064;2023-08-06T00:45:35;95749.38;;;14.90;100.00
34328;BME280;20588;48.840;10.064;2023-08-06T00:48:04;95746.53;;;14.92;100.00
34328;BME280;20588;48.840;10.064;2023-08-06T00:50:31;95735.91;;;14.93;100.00
34328;BME280;20588;48.840;10.064;2023-08-06T00:52:57;95751.47;;;14.93;100.00
34328;BME280;20588;48.840;10.064;2023-08-06T00:55:24;95749.63;;;14.94;100.00
34328;BME280;20588;48.840;10.064;2023-08-06T00:57:50;95734.88;;;14.94;100.00
34328;BME280;20588;48.840;10.064;2023-08-06T01:00:19;95734.63;;;14.96;100.00
34328;BME280;20588;48.840;10.064;2023-08-06T01:02:47;95732.56;;;14.98;100.00
34328;BME280;20588;48.840;10.064;2023-08-06T01:05:14;95720.63;;;14.97;100.00
34328;BME280;20588;48.840;10.064;2023-08-06T01:16:15;95724.50;;;14.89;100.00
34328;BME280;20588;48.840;10.064;2023-08-06T01:18:43;95715.69;;;14.90;100.00
34328;BME280;20588;48.840;10.064;2023-08-06T01:21:12;95723.22;;;14.92;100.00
34328;BME280;20588;48.840;10.064;2023-08-06T01:23:38;95726.06;;;14.90;100.00
34328;BME280;20588;48.840;10.064;2023-08-06T01:29:02;95717.25;;;14.91;100.00
34328;BME280;20588;48.840;10.064;2023-08-06T01:31:32;95719.84;;;14.91;100.00
34328;BME280;20588;48.840;10.064;2023-08-06T01:34:01;95715.44;;;14.92;100.00
34328;BME280;20588;48.840;10.064;2023-08-06T01:36:29;95711.28;;;14.91;100.00
34328;BME280;20588;48.840;10.064;2023-08-06T01:38:56;95715.69;;;14.90;100.00
34328;BME280;20588;48.840;10.064;2023-08-06T01:41:23;95706.88;;;14.91;100.00
34328;BME280;20588;48.840;10.064;2023-08-06T01:43:49;95699.91;;;14.92;100.00
34328;BME280;20588;48.840;10.064;2023-08-06T01:46:15;95709.22;;;14.93;100.00
34328;BME280;20588;48.840;10.064;2023-08-06T01:48:41;95699.13;;;14.91;100.00
34328;BME280;20588;48.840;10.064;2023-08-06T01:51:07;95699.38;;;14.90;100.00
34328;BME280;20588;48.840;10.064;2023-08-06T01:53:34;95691.06;;;14.88;100.00
34328;BME280;20588;48.840;10.064;2023-08-06T01:56:00;95684.59;;;14.85;100.00
34328;BME280;20588;48.840;10.064;2023-08-06T01:58:26;95688.97;;;14.85;100.00
34328;BME280;20588;48.840;10.064;2023-08-06T02:00:52;95682.25;;;14.84;100.00
34328;BME280;20588;48.840;10.064;2023-08-06T02:03:18;95680.72;;;14.83;100.00
34328;BME280;20588;48.840;10.064;2023-08-06T02:05:44;95683.81;;;14.85;100.00
34328;BME280;20588;48.840;10.064;2023-08-06T02:08:11;95683.81;;;14.85;100.00
34328;BME280;20588;48.840;10.064;2023-08-06T02:10:37;95677.88;;;14.84;100.00
34328;BME280;20588;48.840;10.064;2023-08-06T02:13:03;95680.19;;;14.86;100.00
34328;BME280;20588;48.840;10.064;2023-08-06T02:15:29;95678.38;;;14.86;100.00
34328;BME280;20588;48.840;10.064;2023-08-06T02:17:55;95673.19;;;14.86;100.00
34328;BME280;20588;48.840;10.064;2023-08-06T02:20:22;95666.19;;;14.87;100.00
34328;BME280;20588;48.840;10.064;2023-08-06T02:22:48;95664.13;;;14.84;100.00
34328;BME280;20588;48.840;10.064;2023-08-06T02:25:14;95664.38;;;14.82;100.00
34328;BME280;20588;48.840;10.064;2023-08-06T02:27:40;95660.50;;;14.80;100.00
34328;BME280;20588;48.840;10.064;2023-08-06T02:30:06;95672.13;;;14.77;100.00
34328;BME280;20588;48.840;10.064;2023-08-06T02:32:32;95663.88;;;14.75;100.00
34328;BME280;20588;48.840;10.064;2023-08-06T02:35:01;95654.53;;;14.74;100.00
34328;BME280;20588;48.840;10.064;2023-08-06T02:37:28;95662.53;;;14.73;100.00
34328;BME280;20588;48.840;10.064;2023-08-06T02:39:54;95663.84;;;14.70;100.00
34328;BME280;20588;48.840;10.064;2023-08-06T02:42:20;95656.06;;;14.70;100.00
34328;BME280;20588;48.840;10.064;2023-08-06T02:44:46;95657.88;;;14.70;100.00
34328;BME280;20588;48.840;10.064;2023-08-06T02:47:12;95651.94;;;14.69;100.00
34328;BME280;20588;48.840;10.064;2023-08-06T02:49:38;95652.69;;;14.70;100.00
34328;BME280;20588;48.840;10.064;2023-08-06T02:52:04;95657.13;;;14.69;100.00
34328;BME280;20588;48.840;10.064;2023-08-06T02:54:30;95643.91;;;14.71;100.00
34328;BME280;20588;48.840;10.064;2023-08-06T02:56:57;95641.81;;;14.73;100.00
34328;BME280;20588;48.840;10.064;2023-08-06T02:59:23;95644.41;;;14.73;100.00
34328;BME280;20588;48.840;10.064;2023-08-06T03:01:49;95631.22;;;14.74;100.00
34328;BME280;20588;48.840;10.064;2023-08-06T03:04:15;95640.03;;;14.73;100.00
34328;BME280;20588;48.840;10.064;2023-08-06T03:06:41;95628.88;;;14.73;100.00
34328;BME280;20588;48.840;10.064;2023-08-06T03:09:07;95632.25;;;14.73;100.00
34328;BME280;20588;48.840;10.064;2023-08-06T03:11:33;95630.19;;;14.75;100.00
34328;BME280;20588;48.840;10.064;2023-08-06T03:13:59;95630.94;;;14.76;100.00
34328;BME280;20588;48.840;10.064;2023-08-06T03:16:25;95624.22;;;14.75;100.00
34328;BME280;20588;48.840;10.064;2023-08-06T03:18:51;95630.19;;;14.75;100.00
34328;BME280;20588;48.840;10.064;2023-08-06T03:21:17;95629.66;;;14.73;100.00
34328;BME280;20588;48.840;10.064;2023-08-06T03:23:43;95641.31;;;14.76;100.00
34328;BME280;20588;48.840;10.064;2023-08-06T03:26:12;95621.63;;;14.75;100.00
34328;BME280;20588;48.840;10.064;2023-08-06T03:28:38;95620.34;;;14.82;100.00
34328;BME280;20588;48.840;10.064;2023-08-06T03:31:04;95613.88;;;14.75;100.00
34328;BME280;20588;48.840;10.064;2023-08-06T03:33:30;95612.06;;;14.70;100.00
34328;BME280;20588;48.840;10.064;2023-08-06T03:35:57;95623.47;;;14.69;100.00
34328;BME280;20588;48.840;10.064;2023-08-06T03:38:23;95620.34;;;14.67;100.00
34328;BME280;20588;48.840;10.064;2023-08-06T03:40:50;95620.88;;;14.69;100.00
34328;BME280;20588;48.840;10.064;2023-08-06T03:43:16;95618.53;;;14.68;100.00
34328;BME280;20588;48.840;10.064;2023-08-06T03:45:42;95622.91;;;14.67;100.00
34328;BME280;20588;48.840;10.064;2023-08-06T03:48:08;95622.13;;;14.67;100.00
34328;BME280;20588;48.840;10.064;2023-08-06T03:50:35;95611.25;;;14.65;100.00
34328;BME280;20588;48.840;10.064;2023-08-06T03:53:01;95616.97;;;14.72;100.00
34328;BME280;20588;48.840;10.064;2023-08-06T03:55:28;95614.38;;;14.67;100.00
34328;BME280;20588;48.840;10.064;2023-08-06T03:57:54;95605.81;;;14.61;100.00
34328;BME280;20588;48.840;10.064;2023-08-06T04:00:20;95617.44;;;14.59;100.00
34328;BME280;20588;48.840;10.064;2023-08-06T04:02:46;95602.19;;;14.57;100.00
34328;BME280;20588;48.840;10.064;2023-08-06T04:05:12;95600.09;;;14.54;100.00
34328;BME280;20588;48.840;10.064;2023-08-06T04:07:38;95596.75;;;14.54;100.00
34328;BME280;20588;48.840;10.064;2023-08-06T04:10:05;95603.19;;;14.51;100.00
34328;BME280;20588;48.840;10.064;2023-08-06T04:12:31;95608.13;;;14.48;100.00
34328;BME280;20588;48.840;10.064;2023-08-06T04:15:02;95607.09;;;14.48;100.00
34328;BME280;20588;48.840;10.064;2023-08-06T04:17:29;95607.06;;;14.43;100.00
34328;BME280;20588;48.840;10.064;2023-08-06T04:19:55;95600.06;;;14.39;100.00
34328;BME280;20588;48.840;10.064;2023-08-06T04:22:24;95606.81;;;14.40;100.00
34328;BME280;20588;48.840;10.064;2023-08-06T04:24:50;95595.44;;;14.46;100.00
34328;BME280;20588;48.840;10.064;2023-08-06T04:27:17;95595.19;;;14.52;100.00
34328;BME280;20588;48.840;10.064;2023-08-06T04:29:43;95597.28;;;14.61;100.00
34328;BME280;20588;48.840;10.064;2023-08-06T04:32:10;95603.75;;;14.68;100.00
34328;BME280;20588;48.840;10.064;2023-08-06T04:34:36;95598.06;;;14.81;100.00
34328;BME280;20588;48.840;10.064;2023-08-06T04:37:03;95596.50;;;14.85;100.00
34328;BME280;20588;48.840;10.064;2023-08-06T04:39:30;95598.84;;;14.92;100.00
34328;BME280;20588;48.840;10.064;2023-08-06T04:41:56;95600.91;;;15.00;100.00
34328;BME280;20588;48.840;10.064;2023-08-06T04:44:26;95597.03;;;15.07;100.00
34328;BME280;20588;48.840;10.064;2023-08-06T04:46:52;95587.44;;;15.13;100.00
34328;BME280;20588;48.840;10.064;2023-08-06T04:49:21;95591.31;;;15.10;100.00
34328;BME280;20588;48.840;10.064;2023-08-06T04:51:47;95595.22;;;15.08;100.00
34328;BME280;20588;48.840;10.064;2023-08-06T04:54:13;95600.66;;;15.06;100.00
34328;BME280;20588;48.840;10.064;2023-08-06T04:56:39;95600.66;;;15.01;100.00
34328;BME280;20588;48.840;10.064;2023-08-06T04:59:05;95603.75;;;14.98;100.00
34328;BME280;20588;48.840;10.064;2023-08-06T05:01:31;95601.44;;;14.97;100.00
34328;BME280;20588;48.840;10.064;2023-08-06T05:03:57;95602.47;;;14.96;100.00
34328;BME280;20588;48.840;10.064;2023-08-06T05:06:23;95594.19;;;14.99;100.00
34328;BME280;20588;48.840;10.064;2023-08-06T05:08:50;95594.72;;;15.01;100.00
34328;BME280;20588;48.840;10.064;2023-08-06T05:11:16;95602.72;;;15.04;100.00
34328;BME280;20588;48.840;10.064;2023-08-06T05:13:42;95593.41;;;15.08;100.00
34328;BME280;20588;48.840;10.064;2023-08-06T05:16:08;95599.34;;;15.09;100.00
34328;BME280;20588;48.840;10.064;2023-08-06T05:18:34;95599.34;;;15.24;100.00
34328;BME280;20588;48.840;10.064;2023-08-06T05:21:00;95600.63;;;15.16;100.00
34328;BME280;20588;48.840;10.064;2023-08-06T05:23:26;95604.53;;;15.14;100.00
34328;BME280;20588;48.840;10.064;2023-08-06T05:25:52;95591.06;;;15.17;100.00
34328;BME280;20588;48.840;10.064;2023-08-06T05:28:18;95598.84;;;15.17;100.00
34328;BME280;20588;48.840;10.064;2023-08-06T05:30:44;95599.63;;;15.17;100.00
34328;BME280;20588;48.840;10.064;2023-08-06T05:33:10;95601.94;;;15.24;100.00
34328;BME280;20588;48.840;10.064;2023-08-06T05:35:36;95598.03;;;15.36;100.00
34328;BME280;20588;48.840;10.064;2023-08-06T05:38:02;95602.97;;;15.38;100.00
34328;BME280;20588;48.840;10.064;2023-08-06T05:40:28;95599.06;;;15.35;100.00
34328;BME280;20588;48.840;10.064;2023-08-06T05:42:55;95601.41;;;15.37;100.00
34328;BME280;20588;48.840;10.064;2023-08-06T05:45:22;95603.50;;;15.40;100.00
34328;BME280;20588;48.840;10.064;2023-08-06T05:47:48;95604.78;;;15.37;100.00
34328;BME280;20588;48.840;10.064;2023-08-06T05:50:15;95608.16;;;15.38;100.00
34328;BME280;20588;48.840;10.064;2023-08-06T05:52:41;95608.16;;;15.38;100.00
34328;BME280;20588;48.840;10.064;2023-08-06T05:55:07;95605.81;;;15.36;100.00
34328;BME280;20588;48.840;10.064;2023-08-06T05:57:34;95602.19;;;15.32;100.00
34328;BME280;20588;48.840;10.064;2023-08-06T06:00:01;95610.75;;;15.38;100.00
34328;BME280;20588;48.840;10.064;2023-08-06T06:02:27;95606.34;;;15.48;100.00
34328;BME280;20588;48.840;10.064;2023-08-06T06:04:53;95607.59;;;15.61;100.00
34328;BME280;20588;48.840;10.064;2023-08-06T06:07:19;95603.44;;;15.65;100.00
34328;BME280;20588;48.840;10.064;2023-08-06T06:09:45;95613.28;;;15.68;100.00
34328;BME280;20588;48.840;10.064;2023-08-06T06:12:11;95620.84;;;15.64;100.00
34328;BME280;20588;48.840;10.064;2023-08-06T06:14:37;95614.09;;;15.58;100.00
34328;BME280;20588;48.840;10.064;2023-08-06T06:17:03;95616.69;;;15.53;100.00
34328;BME280;20588;48.840;10.064;2023-08-06T06:19:29;95614.66;;;15.40;100.00
34328;BME280;20588;48.840;10.064;2023-08-06T06:21:55;95617.50;;;15.34;100.00
34328;BME280;20588;48.840;10.064;2023-08-06T06:24:23;95623.94;;;15.31;100.00
34328;BME280;20588;48.840;10.064;2023-08-06T06:26:49;95623.94;;;15.31;100.00
34328;BME280;20588;48.840;10.064;2023-08-06T06:29:15;95623.19;;;15.31;100.00
34328;BME280;20588;48.840;10.064;2023-08-06T06:31:41;95617.22;;;15.35;100.00
34328;BME280;20588;48.840;10.064;2023-08-06T06:34:07;95618.25;;;15.54;100.00
34328;BME280;20588;48.840;10.064;2023-08-06T06:36:33;95621.38;;;15.56;100.00
34328;BME280;20588;48.840;10.064;2023-08-06T06:38:59;95611.47;;;15.63;100.00
34328;BME280;20588;48.840;10.064;2023-08-06T06:41:25;95624.19;;;15.75;100.00
34328;BME280;20588;48.840;10.064;2023-08-06T06:43:52;95616.09;;;15.86;100.00
34328;BME280;20588;48.840;10.064;2023-08-06T06:46:18;95620.16;;;16.07;100.00
34328;BME280;20588;48.840;10.064;2023-08-06T06:48:44;95621.59;;;16.34;100.00
34328;BME280;20588;48.840;10.064;2023-08-06T06:51:10;95619.94;;;16.58;100.00
34328;BME280;20588;48.840;10.064;2023-08-06T06:53:36;95627.28;;;16.84;100.00
34328;BME280;20588;48.840;10.064;2023-08-06T06:56:04;95620.22;;;16.95;100.00
34328;BME280;20588;48.840;10.064;2023-08-06T06:58:31;95617.13;;;16.88;100.00
34328;BME280;20588;48.840;10.064;2023-08-06T07:00:58;95622.81;;;16.95;100.00
34328;BME280;20588;48.840;10.064;2023-08-06T07:03:24;95612.19;;;16.91;100.00
34328;BME280;20588;48.840;10.064;2023-08-06T07:05:51;95614.47;;;16.98;100.00
34328;BME280;20588;48.840;10.064;2023-08-06T07:08:17;95606.63;;;17.03;100.00
34328;BME280;20588;48.840;10.064;2023-08-06T07:10:43;95611.28;;;17.06;100.00
34328;BME280;20588;48.840;10.064;2023-08-06T07:13:09;95623.19;;;17.12;100.00
34328;BME280;20588;48.840;10.064;2023-08-06T07:15:36;95622.56;;;17.25;100.00
34328;BME280;20588;48.840;10.064;2023-08-06T07:18:02;95622.25;;;17.31;98.62
34328;BME280;20588;48.840;10.064;2023-08-06T07:20:28;95625.53;;;17.42;99.08
34328;BME280;20588;48.840;10.064;2023-08-06T07:22:59;95621.38;;;17.41;98.65
34328;BME280;20588;48.840;10.064;2023-08-06T07:25:25;95626.84;;;17.44;96.28
34328;BME280;20588;48.840;10.064;2023-08-06T07:27:51;95625.53;;;17.42;97.23
34328;BME280;20588;48.840;10.064;2023-08-06T07:30:17;95631.66;;;17.56;97.74
34328;BME280;20588;48.840;10.064;2023-08-06T07:32:43;95633.63;;;17.69;95.87
34328;BME280;20588;48.840;10.064;2023-08-06T07:35:09;95629.22;;;17.93;95.69
34328;BME280;20588;48.840;10.064;2023-08-06T07:37:38;95628.59;;;18.01;95.11
34328;BME280;20588;48.840;10.064;2023-08-06T07:40:05;95631.84;;;18.12;96.83
34328;BME280;20588;48.840;10.064;2023-08-06T07:42:31;95632.66;;;18.31;95.38
34328;BME280;20588;48.840;10.064;2023-08-06T07:44:58;95630.53;;;18.14;92.10
34328;BME280;20588;48.840;10.064;2023-08-06T07:47:25;95633.75;;;18.06;94.21
34328;BME280;20588;48.840;10.064;2023-08-06T07:49:51;95640.91;;;17.72;94.60
34328;BME280;20588;48.840;10.064;2023-08-06T07:52:17;95634.78;;;17.58;95.35
34328;BME280;20588;48.840;10.064;2023-08-06T07:54:43;95637.34;;;17.63;97.04
34328;BME280;20588;48.840;10.064;2023-08-06T07:57:09;95641.59;;;17.77;94.48
34328;BME280;20588;48.840;10.064;2023-08-06T07:59:36;95641.59;;;17.77;94.58
34328;BME280;20588;48.840;10.064;2023-08-06T08:02:02;95638.44;;;17.80;94.44
34328;BME280;20588;48.840;10.064;2023-08-06T08:04:28;95633.91;;;17.91;94.65
34328;BME280;20588;48.840;10.064;2023-08-06T08:06:54;95644.44;;;18.05;91.62
34328;BME280;20588;48.840;10.064;2023-08-06T08:09:20;95632.78;;;18.21;89.66
34328;BME280;20588;48.840;10.064;2023-08-06T08:11:46;95633.34;;;18.41;90.34
34328;BME280;20588;48.840;10.064;2023-08-06T08:14:13;95641.88;;;18.65;88.72
34328;BME280;20588;48.840;10.064;2023-08-06T08:16:39;95638.22;;;18.48;87.63
34328;BME280;20588;48.840;10.064;2023-08-06T08:19:05;95637.66;;;18.27;87.88
34328;BME280;20588;48.840;10.064;2023-08-06T08:21:31;95635.22;;;18.12;86.75
34328;BME280;20588;48.840;10.064;2023-08-06T08:23:59;95640.78;;;17.82;88.98
34328;BME280;20588;48.840;10.064;2023-08-06T08:26:26;95646.25;;;17.80;90.15
34328;BME280;20588;48.840;10.064;2023-08-06T08:28:53;95638.97;;;17.82;89.56
34328;BME280;20588;48.840;10.064;2023-08-06T08:31:19;95647.25;;;17.84;90.79
34328;BME280;20588;48.840;10.064;2023-08-06T08:33:46;95644.00;;;17.98;89.86
34328;BME280;20588;48.840;10.064;2023-08-06T08:36:12;95641.97;;;18.13;90.09
34328;BME280;20588;48.840;10.064;2023-08-06T08:38:38;95642.44;;;18.20;89.95
34328;BME280;20588;48.840;10.064;2023-08-06T08:41:04;95642.75;;;18.14;89.32
34328;BME280;20588;48.840;10.064;2023-08-06T08:43:30;95643.94;;;18.26;86.51
34328;BME280;20588;48.840;10.064;2023-08-06T08:45:57;95645.59;;;18.96;88.77
34328;BME280;20588;48.840;10.064;2023-08-06T08:48:27;95629.47;;;19.72;83.72
34328;BME280;20588;48.840;10.064;2023-08-06T08:50:54;95635.81;;;20.25;85.24
34328;BME280;20588;48.840;10.064;2023-08-06T08:53:22;95641.34;;;20.73;77.86
34328;BME280;20588;48.840;10.064;2023-08-06T08:55:49;95636.22;;;20.68;74.11
34328;BME280;20588;48.840;10.064;2023-08-06T08:58:16;95641.88;;;20.61;74.38
34328;BME280;20588;48.840;10.064;2023-08-06T09:00:43;95640.31;;;20.60;74.65
34328;BME280;20588;48.840;10.064;2023-08-06T09:03:11;95638.53;;;20.34;75.63
34328;BME280;20588;48.840;10.064;2023-08-06T09:05:39;95645.56;;;20.06;76.81
34328;BME280;20588;48.840;10.064;2023-08-06T09:08:12;95637.81;;;19.88;77.04
34328;BME280;20588;48.840;10.064;2023-08-06T09:10:42;95645.19;;;19.86;78.10
34328;BME280;20588;48.840;10.064;2023-08-06T09:13:08;95642.22;;;19.60;78.02
34328;BME280;20588;48.840;10.064;2023-08-06T09:15:35;95648.09;;;19.20;77.40
34328;BME280;20588;48.840;10.064;2023-08-06T09:18:01;95655.38;;;18.86;80.47
34328;BME280;20588;48.840;10.064;2023-08-06T09:20:34;95649.00;;;18.60;83.35
34328;BME280;20588;48.840;10.064;2023-08-06T09:23:07;95653.13;;;18.42;84.79
34328;BME280;20588;48.840;10.064;2023-08-06T09:25:34;95656.88;;;18.31;86.25
34328;BME280;20588;48.840;10.064;2023-08-06T09:28:03;95650.06;;;18.35;87.98
34328;BME280;20588;48.840;10.064;2023-08-06T09:30:35;95649.97;;;18.64;87.01
34328;BME280;20588;48.840;10.064;2023-08-06T09:33:01;95643.88;;;19.05;85.96
34328;BME280;20588;48.840;10.064;2023-08-06T09:35:31;95632.19;;;19.67;82.77
34328;BME280;20588;48.840;10.064;2023-08-06T09:38:08;95649.13;;;19.97;78.80
34328;BME280;20588;48.840;10.064;2023-08-06T09:40:34;95652.25;;;19.99;78.13
34328;BME280;20588;48.840;10.064;2023-08-06T09:43:01;95648.38;;;19.37;80.67
34328;BME280;20588;48.840;10.064;2023-08-06T09:45:37;95666.44;;;18.96;81.88
34328;BME280;20588;48.840;10.064;2023-08-06T09:48:05;95664.56;;;18.46;85.41
34328;BME280;20588;48.840;10.064;2023-08-06T09:50:33;95658.13;;;18.39;85.47
34328;BME280;20588;48.840;10.064;2023-08-06T09:53:01;95659.31;;;18.23;85.79
34328;BME280;20588;48.840;10.064;2023-08-06T09:55:27;95655.16;;;18.45;88.23
34328;BME280;20588;48.840;10.064;2023-08-06T09:57:54;95642.00;;;18.92;86.43
34328;BME280;20588;48.840;10.064;2023-08-06T10:00:21;95633.16;;;19.71;81.86
34328;BME280;20588;48.840;10.064;2023-08-06T10:02:48;95638.19;;;21.20;77.47
34328;BME280;20588;48.840;10.064;2023-08-06T10:05:15;95642.38;;;22.52;67.08
34328;BME280;20588;48.840;10.064;2023-08-06T10:07:43;95648.84;;;22.54;64.45
34328;BME280;20588;48.840;10.064;2023-08-06T10:10:11;95658.56;;;22.54;62.79
34328;BME280;20588;48.840;10.064;2023-08-06T10:12:40;95657.78;;;22.53;61.41
34328;BME280;20588;48.840;10.064;2023-08-06T10:15:11;95652.59;;;22.31;62.72
34328;BME280;20588;48.840;10.064;2023-08-06T10:17:38;95656.44;;;22.25;64.08
34328;BME280;20588;48.840;10.064;2023-08-06T10:20:06;95649.09;;;21.88;65.54
34328;BME280;20588;48.840;10.064;2023-08-06T10:22:33;95650.88;;;21.57;67.13
34328;BME280;20588;48.840;10.064;2023-08-06T10:25:01;95640.44;;;21.13;68.78
34328;BME280;20588;48.840;10.064;2023-08-06T10:27:40;95647.34;;;21.09;70.04
34328;BME280;20588;48.840;10.064;2023-08-06T10:30:31;95643.56;;;21.15;71.66
34328;BME280;20588;48.840;10.064;2023-08-06T10:32:59;95645.69;;;21.13;71.94
34328;BME280;20588;48.840;10.064;2023-08-06T10:35:44;95644.75;;;21.09;71.94
34328;BME280;20588;48.840;10.064;2023-08-06T10:38:12;95643.13;;;20.86;71.55
34328;BME280;20588;48.840;10.064;2023-08-06T10:40:41;95639.75;;;20.85;71.83
34328;BME280;20588;48.840;10.064;2023-08-06T10:43:08;95641.19;;;21.05;71.57
34328;BME280;20588;48.840;10.064;2023-08-06T10:45:50;95632.63;;;20.77;71.09
34328;BME280;20588;48.840;10.064;2023-08-06T10:50:56;95651.00;;;20.10;75.15
34328;BME280;20588;48.840;10.064;2023-08-06T10:53:22;95661.56;;;19.59;77.39
34328;BME280;20588;48.840;10.064;2023-08-06T10:55:48;95663.44;;;18.89;80.71
34328;BME280;20588;48.840;10.064;2023-08-06T10:58:16;95646.66;;;18.95;85.44
34328;BME280;20588;48.840;10.064;2023-08-06T11:00:42;95644.63;;;19.24;86.58
34328;BME280;20588;48.840;10.064;2023-08-06T11:03:09;95649.38;;;19.54;84.10
34328;BME280;20588;48.840;10.064;2023-08-06T11:05:36;95638.88;;;19.59;81.23
34328;BME280;20588;48.840;10.064;2023-08-06T11:08:02;95648.31;;;19.23;82.79
34328;BME280;20588;48.840;10.064;2023-08-06T11:10:28;95644.72;;;19.01;86.73
34328;BME280;20588;48.840;10.064;2023-08-06T11:12:54;95649.00;;;18.60;85.80
34328;BME280;20588;48.840;10.064;2023-08-06T11:15:21;95655.63;;;18.05;88.26
34328;BME280;20588;48.840;10.064;2023-08-06T11:17:48;95647.13;;;17.71;93.18
34328;BME280;20588;48.840;10.064;2023-08-06T11:20:14;95652.25;;;17.52;95.83
34328;BME280;20588;48.840;10.064;2023-08-06T11:22:40;95652.34;;;17.37;96.15
34328;BME280;20588;48.840;10.064;2023-08-06T11:25:07;95652.53;;;17.51;97.33
34328;BME280;20588;48.840;10.064;2023-08-06T11:27:33;95652.56;;;17.74;97.28
34328;BME280;20588;48.840;10.064;2023-08-06T11:30:00;95652.53;;;17.79;97.76
34328;BME280;20588;48.840;10.064;2023-08-06T11:32:26;95644.75;;;18.22;97.41
34328;BME280;20588;48.840;10.064;2023-08-06T11:34:54;95633.16;;;19.07;89.80
34328;BME280;20588;48.840;10.064;2023-08-06T11:37:23;95639.31;;;19.48;85.78
34328;BME280;20588;48.840;10.064;2023-08-06T11:39:50;95649.13;;;20.10;83.47
34328;BME280;20588;48.840;10.064;2023-08-06T11:42:17;95642.25;;;20.90;77.21
34328;BME280;20588;48.840;10.064;2023-08-06T11:44:43;95645.97;;;21.11;75.91
34328;BME280;20588;48.840;10.064;2023-08-06T11:47:16;95637.97;;;21.08;74.46
34328;BME280;20588;48.840;10.064;2023-08-06T11:49:49;95640.03;;;20.97;73.82
34328;BME280;20588;48.840;10.064;2023-08-06T11:52:20;95651.56;;;20.83;74.35
34328;BME280;20588;48.840;10.064;2023-08-06T11:54:47;95652.16;;;20.44;76.66
34328;BME280;20588;48.840;10.064;2023-08-06T11:57:15;95649.56;;;20.17;76.45
34328;BME280;20588;48.840;10.064;2023-08-06T11:59:41;95659.34;;;19.66;78.76
34328;BME280;20588;48.840;10.064;2023-08-06T12:02:09;95658.72;;;19.10;81.80
34328;BME280;20588;48.840;10.064;2023-08-06T12:05:02;95662.31;;;18.58;85.95
34328;BME280;20588;48.840;10.064;2023-08-06T12:07:31;95692.03;;;18.10;89.34
34328;BME280;20588;48.840;10.064;2023-08-06T12:09:58;95686.56;;;17.83;89.94
34328;BME280;20588;48.840;10.064;2023-08-06T12:12:24;95689.50;;;18.05;90.11
34328;BME280;20588;48.840;10.064;2023-08-06T12:14:50;95700.41;;;18.31;87.70
34328;BME280;20588;48.840;10.064;2023-08-06T12:17:16;95690.84;;;18.68;87.87
34328;BME280;20588;48.840;10.064;2023-08-06T12:19:45;95687.25;;;19.20;85.70
34328;BME280;20588;48.840;10.064;2023-08-06T12:22:12;95696.41;;;19.68;80.95
34328;BME280;20588;48.840;10.064;2023-08-06T12:24:40;95690.47;;;20.08;79.24
34328;BME280;20588;48.840;10.064;2023-08-06T12:27:06;95695.59;;;20.00;75.13
34328;BME280;20588;48.840;10.064;2023-08-06T12:29:32;95705.34;;;19.81;78.04
34328;BME280;20588;48.840;10.064;2023-08-06T12:31:58;95703.31;;;19.45;78.59
34328;BME280;20588;48.840;10.064;2023-08-06T12:34:24;95694.28;;;19.38;78.53
34328;BME280;20588;48.840;10.064;2023-08-06T12:36:50;95709.50;;;19.49;78.28
34328;BME280;20588;48.840;10.064;2023-08-06T12:39:16;95704.84;;;19.46;78.78
34328;BME280;20588;48.840;10.064;2023-08-06T12:41:42;95711.63;;;19.47;78.53
34328;BME280;20588;48.840;10.064;2023-08-06T12:44:10;95723.00;;;19.38;78.38
34328;BME280;20588;48.840;10.064;2023-08-06T12:46:36;95738.91;;;19.18;77.99
34328;BME280;20588;48.840;10.064;2023-08-06T12:49:02;95732.66;;;19.00;76.78
34328;BME280;20588;48.840;10.064;2023-08-06T12:51:28;95739.06;;;19.08;78.91
34328;BME280;20588;48.840;10.064;2023-08-06T12:53:54;95733.41;;;19.19;77.79
34328;BME280;20588;48.840;10.064;2023-08-06T12:56:21;95749.63;;;19.16;78.58
34328;BME280;20588;48.840;10.064;2023-08-06T12:58:47;95758.88;;;19.09;76.77